sensor_id;sensor_type;location;lat;lon;timestamp;pressure;altitude;pressure_sealevel;temperature;humidity
70976;BME280;58635;51.198;6.010;2022-07-06T00:01:05;102377.22;;;20.37;42.68
70976;BME280;58635;51.198;6.010;2022-07-06T00:03:31;102386.34;;;20.34;42.93
70976;BME280;58635;51.198;6.010;2022-07-06T00:05:56;102392.19;;;20.36;42.93
70976;BME280;58635;51.198;6.010;2022-07-06T00:08:21;102393.81;;;20.37;43.14
70976;BME280;58635;51.198;6.010;2022-07-06T00:10:47;102392.38;;;20.35;43.01
70976;BME280;58635;51.198;6.010;2022-07-06T00:13:12;102388.38;;;20.32;42.85
70976;BME280;58635;51.198;6.010;2022-07-06T00:15:38;102383.78;;;20.28;42.86
70976;BME280;58635;51.198;6.010;2022-07-06T00:18:03;102381.81;;;20.23;43.41
70976;BME280;58635;51.198;6.010;2022-07-06T00:20:28;102383.84;;;20.21;43.26
70976;BME280;58635;51.198;6.010;2022-07-06T00:22:54;102381.22;;;20.21;43.42
70976;BME280;58635;51.198;6.010;2022-07-06T00:25:19;102380.41;;;20.21;43.39
70976;BME280;58635;51.198;6.010;2022-07-06T00:27:45;102378.81;;;20.20;43.70
70976;BME280;58635;51.198;6.010;2022-07-06T00:30:10;102384.28;;;20.18;43.55
70976;BME280;58635;51.198;6.010;2022-07-06T00:32:36;102374.66;;;20.12;43.75
70976;BME280;58635;51.198;6.010;2022-07-06T00:35:01;102380.56;;;20.07;43.68
70976;BME280;58635;51.198;6.010;2022-07-06T00:37:26;102386.25;;;20.04;43.71
70976;BME280;58635;51.198;6.010;2022-07-06T00:39:52;102391.94;;;20.01;43.72
70976;BME280;58635;51.198;6.010;2022-07-06T00:42:17;102388.72;;;19.99;43.89
70976;BME280;58635;51.198;6.010;2022-07-06T00:44:43;102389.75;;;19.98;43.89
70976;BME280;58635;51.198;6.010;2022-07-06T00:47:08;102392.38;;;19.98;43.83
70976;BME280;58635;51.198;6.010;2022-07-06T00:49:34;102392.38;;;19.98;43.94
70976;BME280;58635;51.198;6.010;2022-07-06T00:52:18;102394.19;;;19.98;43.91
70976;BME280;58635;51.198;6.010;2022-07-06T00:54:44;102386.97;;;19.93;43.92
70976;BME280;58635;51.198;6.010;2022-07-06T00:57:10;102389.22;;;19.90;43.99
70976;BME280;58635;51.198;6.010;2022-07-06T00:59:36;102383.97;;;19.90;44.10
70976;BME280;58635;51.198;6.010;2022-07-06T01:02:02;102387.41;;;19.90;44.58
70976;BME280;58635;51.198;6.010;2022-07-06T01:04:28;102393.19;;;19.74;44.47
70976;BME280;58635;51.198;6.010;2022-07-06T01:06:53;102385.16;;;19.69;44.97
70976;BME280;58635;51.198;6.010;2022-07-06T01:09:19;102388.59;;;19.69;44.92
70976;BME280;58635;51.198;6.010;2022-07-06T01:11:44;102395.34;;;19.52;45.33
70976;BME280;58635;51.198;6.010;2022-07-06T01:14:11;102384.34;;;19.43;45.25
70976;BME280;58635;51.198;6.010;2022-07-06T01:16:37;102392.81;;;19.39;45.43
70976;BME280;58635;51.198;6.010;2022-07-06T01:19:02;102388.59;;;19.38;45.57
70976;BME280;58635;51.198;6.010;2022-07-06T01:21:28;102389.81;;;19.35;45.62
70976;BME280;58635;51.198;6.010;2022-07-06T01:23:53;102387.19;;;19.35;45.89
70976;BME280;58635;51.198;6.010;2022-07-06T01:26:20;102382.16;;;19.34;45.60
70976;BME280;58635;51.198;6.010;2022-07-06T01:28:47;102384.78;;;19.34;45.79
70976;BME280;58635;51.198;6.010;2022-07-06T01:31:22;102388.22;;;19.34;45.95
70976;BME280;58635;51.198;6.010;2022-07-06T01:33:49;102388.00;;;19.36;45.69
70976;BME280;58635;51.198;6.010;2022-07-06T01:36:16;102377.72;;;19.34;45.74
70976;BME280;58635;51.198;6.010;2022-07-06T01:41:10;102383.78;;;19.35;45.65
70976;BME280;58635;51.198;6.010;2022-07-06T01:43:36;102377.13;;;19.32;45.96
70976;BME280;58635;51.198;6.010;2022-07-06T01:46:01;102382.38;;;19.32;45.86
70976;BME280;58635;51.198;6.010;2022-07-06T01:48:26;102382.38;;;19.32;46.12
70976;BME280;58635;51.198;6.010;2022-07-06T01:50:52;102382.22;;;19.27;45.79
70976;BME280;58635;51.198;6.010;2022-07-06T01:53:17;102382.03;;;19.22;45.85
70976;BME280;58635;51.198;6.010;2022-07-06T01:55:42;102386.91;;;19.18;46.31
70976;BME280;58635;51.198;6.010;2022-07-06T01:58:08;102392.78;;;19.14;46.58
70976;BME280;58635;51.198;6.010;2022-07-06T02:00:33;102383.94;;;19.08;46.28
70976;BME280;58635;51.198;6.010;2022-07-06T02:02:59;102378.94;;;19.00;46.68
70976;BME280;58635;51.198;6.010;2022-07-06T02:05:24;102389.88;;;18.97;46.42
70976;BME280;58635;51.198;6.010;2022-07-06T02:07:49;102384.63;;;18.97;46.78
70976;BME280;58635;51.198;6.010;2022-07-06T02:10:15;102382.22;;;18.95;47.05
70976;BME280;58635;51.198;6.010;2022-07-06T02:12:40;102382.22;;;18.95;47.13
70976;BME280;58635;51.198;6.010;2022-07-06T02:15:06;102378.78;;;18.95;47.11
70976;BME280;58635;51.198;6.010;2022-07-06T02:17:31;102374.13;;;18.97;47.16
70976;BME280;58635;51.198;6.010;2022-07-06T02:19:57;102371.28;;;18.98;47.22
70976;BME280;58635;51.198;6.010;2022-07-06T02:22:22;102369.09;;;18.95;47.26
70976;BME280;58635;51.198;6.010;2022-07-06T02:24:47;102367.50;;;18.94;47.47
70976;BME280;58635;51.198;6.010;2022-07-06T02:27:13;102363.25;;;18.93;47.48
70976;BME280;58635;51.198;6.010;2022-07-06T02:29:38;102361.63;;;18.92;47.29
70976;BME280;58635;51.198;6.010;2022-07-06T02:32:04;102361.03;;;18.90;47.49
70976;BME280;58635;51.198;6.010;2022-07-06T02:34:29;102366.50;;;18.89;47.23
70976;BME280;58635;51.198;6.010;2022-07-06T02:36:54;102364.09;;;18.87;47.67
70976;BME280;58635;51.198;6.010;2022-07-06T02:39:20;102371.38;;;18.85;47.55
70976;BME280;58635;51.198;6.010;2022-07-06T02:41:45;102375.41;;;18.81;47.78
70976;BME280;58635;51.198;6.010;2022-07-06T02:44:11;102377.66;;;18.78;47.57
70976;BME280;58635;51.198;6.010;2022-07-06T02:46:36;102381.50;;;18.75;47.90
70976;BME280;58635;51.198;6.010;2022-07-06T02:49:01;102383.47;;;18.80;47.72
70976;BME280;58635;51.198;6.010;2022-07-06T02:51:27;102385.94;;;18.68;47.89
70976;BME280;58635;51.198;6.010;2022-07-06T02:53:52;102383.75;;;18.65;47.80
70976;BME280;58635;51.198;6.010;2022-07-06T02:56:17;102390.00;;;18.64;47.71
70976;BME280;58635;51.198;6.010;2022-07-06T02:58:43;102390.19;;;18.62;47.90
70976;BME280;58635;51.198;6.010;2022-07-06T03:01:08;102387.78;;;18.61;48.27
70976;BME280;58635;51.198;6.010;2022-07-06T03:03:33;102387.56;;;18.56;48.17
70976;BME280;58635;51.198;6.010;2022-07-06T03:05:59;102392.81;;;18.56;48.55
70976;BME280;58635;51.198;6.010;2022-07-06T03:08:24;102385.97;;;18.55;48.44
70976;BME280;58635;51.198;6.010;2022-07-06T03:10:50;102387.78;;;18.54;48.40
70976;BME280;58635;51.198;6.010;2022-07-06T03:13:15;102387.81;;;18.48;48.40
70976;BME280;58635;51.198;6.010;2022-07-06T03:15:40;102384.19;;;18.42;48.61
70976;BME280;58635;51.198;6.010;2022-07-06T03:18:06;102395.50;;;18.36;48.49
70976;BME280;58635;51.198;6.010;2022-07-06T03:20:31;102394.09;;;18.33;48.62
70976;BME280;58635;51.198;6.010;2022-07-06T03:22:56;102399.94;;;18.29;48.99
70976;BME280;58635;51.198;6.010;2022-07-06T03:25:22;102401.16;;;18.26;49.12
70976;BME280;58635;51.198;6.010;2022-07-06T03:27:47;102398.56;;;18.26;49.09
70976;BME280;58635;51.198;6.010;2022-07-06T03:30:13;102403.78;;;18.26;48.97
70976;BME280;58635;51.198;6.010;2022-07-06T03:32:39;102398.34;;;18.28;49.21
70976;BME280;58635;51.198;6.010;2022-07-06T03:35:05;102395.50;;;18.29;49.41
70976;BME280;58635;51.198;6.010;2022-07-06T03:37:32;102392.69;;;18.31;49.12
70976;BME280;58635;51.198;6.010;2022-07-06T03:39:57;102394.50;;;18.30;49.54
70976;BME280;58635;51.198;6.010;2022-07-06T03:42:22;102391.13;;;18.23;49.18
70976;BME280;58635;51.198;6.010;2022-07-06T03:44:48;102393.31;;;18.20;49.24
70976;BME280;58635;51.198;6.010;2022-07-06T03:47:13;102397.13;;;18.37;48.96
70976;BME280;58635;51.198;6.010;2022-07-06T03:49:39;102409.81;;;18.40;48.69
70976;BME280;58635;51.198;6.010;2022-07-06T03:52:04;102412.41;;;18.40;49.05
70976;BME280;58635;51.198;6.010;2022-07-06T03:54:30;102409.59;;;18.41;48.70
70976;BME280;58635;51.198;6.010;2022-07-06T03:56:56;102404.94;;;18.44;48.85
70976;BME280;58635;51.198;6.010;2022-07-06T03:59:21;102404.75;;;18.45;48.68
70976;BME280;58635;51.198;6.010;2022-07-06T04:01:46;102406.16;;;18.48;48.95
70976;BME280;58635;51.198;6.010;2022-07-06T04:04:12;102409.38;;;18.50;49.05
70976;BME280;58635;51.198;6.010;2022-07-06T04:06:37;102408.97;;;18.53;49.08
70976;BME280;58635;51.198;6.010;2022-07-06T04:09:03;102400.69;;;18.56;48.67
70976;BME280;58635;51.198;6.010;2022-07-06T04:11:29;102407.94;;;18.60;48.76
70976;BME280;58635;51.198;6.010;2022-07-06T04:13:55;102406.53;;;18.64;48.86
70976;BME280;58635;51.198;6.010;2022-07-06T04:16:20;102399.25;;;18.66;48.72
70976;BME280;58635;51.198;6.010;2022-07-06T04:18:46;102413.75;;;18.69;48.56
70976;BME280;58635;51.198;6.010;2022-07-06T04:21:11;102408.31;;;18.70;48.66
70976;BME280;58635;51.198;6.010;2022-07-06T04:23:37;102413.56;;;18.70;48.39
70976;BME280;58635;51.198;6.010;2022-07-06T04:26:02;102410.13;;;18.70;48.74
70976;BME280;58635;51.198;6.010;2022-07-06T04:28:27;102410.75;;;18.72;48.50
70976;BME280;58635;51.198;6.010;2022-07-06T04:30:53;102410.31;;;18.75;48.69
70976;BME280;58635;51.198;6.010;2022-07-06T04:33:18;102409.09;;;18.78;48.69
70976;BME280;58635;51.198;6.010;2022-07-06T04:35:44;102408.09;;;18.79;48.39
70976;BME280;58635;51.198;6.010;2022-07-06T04:38:09;102409.09;;;18.84;48.50
70976;BME280;58635;51.198;6.010;2022-07-06T04:40:35;102408.03;;;18.92;48.54
70976;BME280;58635;51.198;6.010;2022-07-06T04:43:00;102406.41;;;18.97;48.39
70976;BME280;58635;51.198;6.010;2022-07-06T04:45:26;102399.91;;;19.07;48.07
70976;BME280;58635;51.198;6.010;2022-07-06T04:47:51;102396.78;;;19.16;47.91
70976;BME280;58635;51.198;6.010;2022-07-06T04:50:17;102409.44;;;19.26;47.67
70976;BME280;58635;51.198;6.010;2022-07-06T04:52:42;102410.81;;;19.35;47.45
70976;BME280;58635;51.198;6.010;2022-07-06T04:55:08;102404.31;;;19.44;47.72
70976;BME280;58635;51.198;6.010;2022-07-06T04:57:34;102406.28;;;19.55;47.12
70976;BME280;58635;51.198;6.010;2022-07-06T04:59:59;102410.06;;;19.60;47.04
70976;BME280;58635;51.198;6.010;2022-07-06T05:02:25;102396.28;;;19.64;47.05
70976;BME280;58635;51.198;6.010;2022-07-06T05:04:50;102401.28;;;19.72;46.94
70976;BME280;58635;51.198;6.010;2022-07-06T05:07:16;102403.56;;;19.87;46.83
70976;BME280;58635;51.198;6.010;2022-07-06T05:09:42;102395.56;;;20.00;46.29
70976;BME280;58635;51.198;6.010;2022-07-06T05:12:08;102405.31;;;20.18;45.87
70976;BME280;58635;51.198;6.010;2022-07-06T05:14:33;102408.38;;;20.33;45.56
70976;BME280;58635;51.198;6.010;2022-07-06T05:16:59;102407.84;;;20.50;45.25
70976;BME280;58635;51.198;6.010;2022-07-06T05:19:24;102406.22;;;20.67;44.82
70976;BME280;58635;51.198;6.010;2022-07-06T05:21:50;102414.31;;;20.84;44.52
70976;BME280;58635;51.198;6.010;2022-07-06T05:24:15;102409.22;;;21.00;43.93
70976;BME280;58635;51.198;6.010;2022-07-06T05:26:41;102412.41;;;21.21;43.51
70976;BME280;58635;51.198;6.010;2022-07-06T05:29:07;102415.53;;;21.41;43.31
70976;BME280;58635;51.198;6.010;2022-07-06T05:31:32;102407.56;;;21.59;43.27
70976;BME280;58635;51.198;6.010;2022-07-06T05:33:57;102413.19;;;21.75;42.53
70976;BME280;58635;51.198;6.010;2022-07-06T05:36:23;102420.53;;;21.96;42.34
70976;BME280;58635;51.198;6.010;2022-07-06T05:38:48;102412.97;;;22.11;42.06
70976;BME280;58635;51.198;6.010;2022-07-06T05:41:14;102418.00;;;22.25;41.84
70976;BME280;58635;51.198;6.010;2022-07-06T05:43:39;102420.53;;;22.31;41.79
70976;BME280;58635;51.198;6.010;2022-07-06T05:46:04;102426.94;;;22.35;41.33
70976;BME280;58635;51.198;6.010;2022-07-06T05:48:30;102421.22;;;22.38;41.57
70976;BME280;58635;51.198;6.010;2022-07-06T05:51:14;102423.03;;;22.50;41.61
70976;BME280;58635;51.198;6.010;2022-07-06T05:53:39;102426.88;;;22.59;41.09
70976;BME280;58635;51.198;6.010;2022-07-06T05:56:05;102428.69;;;22.70;40.86
70976;BME280;58635;51.198;6.010;2022-07-06T05:58:30;102430.63;;;22.86;40.68
70976;BME280;58635;51.198;6.010;2022-07-06T06:00:55;102440.34;;;22.97;40.34
70976;BME280;58635;51.198;6.010;2022-07-06T06:03:21;102436.03;;;23.08;40.22
70976;BME280;58635;51.198;6.010;2022-07-06T06:05:46;102440.69;;;23.18;40.20
70976;BME280;58635;51.198;6.010;2022-07-06T06:08:12;102439.50;;;23.25;39.88
70976;BME280;58635;51.198;6.010;2022-07-06T06:10:37;102438.00;;;23.29;40.10
70976;BME280;58635;51.198;6.010;2022-07-06T06:13:02;102432.81;;;23.34;39.79
70976;BME280;58635;51.198;6.010;2022-07-06T06:15:29;102434.25;;;23.42;39.58
70976;BME280;58635;51.198;6.010;2022-07-06T06:17:54;102431.47;;;23.49;39.69
70976;BME280;58635;51.198;6.010;2022-07-06T06:20:20;102434.28;;;23.59;39.37
70976;BME280;58635;51.198;6.010;2022-07-06T06:22:56;102433.88;;;23.67;39.51
70976;BME280;58635;51.198;6.010;2022-07-06T06:25:32;102436.31;;;23.69;39.42
70976;BME280;58635;51.198;6.010;2022-07-06T06:27:58;102440.59;;;23.75;39.70
70976;BME280;58635;51.198;6.010;2022-07-06T06:30:24;102441.81;;;23.84;39.35
70976;BME280;58635;51.198;6.010;2022-07-06T06:32:50;102436.34;;;23.90;39.38
70976;BME280;58635;51.198;6.010;2022-07-06T06:35:15;102437.88;;;23.86;38.99
70976;BME280;58635;51.198;6.010;2022-07-06T06:37:41;102428.91;;;23.87;39.30
70976;BME280;58635;51.198;6.010;2022-07-06T06:40:07;102429.41;;;23.84;38.99
70976;BME280;58635;51.198;6.010;2022-07-06T06:42:35;102434.28;;;23.92;39.11
70976;BME280;58635;51.198;6.010;2022-07-06T06:45:01;102443.47;;;24.07;38.74
70976;BME280;58635;51.198;6.010;2022-07-06T06:47:26;102440.38;;;24.15;38.42
70976;BME280;58635;51.198;6.010;2022-07-06T06:49:52;102434.88;;;24.16;38.65
70976;BME280;58635;51.198;6.010;2022-07-06T06:52:17;102443.91;;;24.20;38.45
70976;BME280;58635;51.198;6.010;2022-07-06T06:54:42;102444.06;;;24.31;38.10
70976;BME280;58635;51.198;6.010;2022-07-06T06:57:08;102445.84;;;24.47;38.06
70976;BME280;58635;51.198;6.010;2022-07-06T06:59:33;102439.72;;;24.63;37.73
70976;BME280;58635;51.198;6.010;2022-07-06T07:01:59;102442.03;;;24.82;37.69
70976;BME280;58635;51.198;6.010;2022-07-06T07:04:24;102438.19;;;24.94;37.06
70976;BME280;58635;51.198;6.010;2022-07-06T07:06:50;102439.63;;;25.02;37.22
70976;BME280;58635;51.198;6.010;2022-07-06T07:09:15;102442.94;;;25.19;36.81
70976;BME280;58635;51.198;6.010;2022-07-06T07:11:40;102444.34;;;25.27;35.68
70976;BME280;58635;51.198;6.010;2022-07-06T07:14:06;102446.13;;;25.21;35.43
70976;BME280;58635;51.198;6.010;2022-07-06T07:16:31;102448.22;;;25.14;35.66
70976;BME280;58635;51.198;6.010;2022-07-06T07:18:57;102447.47;;;24.97;35.72
70976;BME280;58635;51.198;6.010;2022-07-06T07:21:22;102453.38;;;24.77;36.15
70976;BME280;58635;51.198;6.010;2022-07-06T07:23:48;102447.31;;;24.60;36.01
70976;BME280;58635;51.198;6.010;2022-07-06T07:26:15;102447.91;;;24.40;36.18
70976;BME280;58635;51.198;6.010;2022-07-06T07:28:41;102451.53;;;24.17;36.48
70976;BME280;58635;51.198;6.010;2022-07-06T07:31:06;102450.75;;;24.16;36.45
70976;BME280;58635;51.198;6.010;2022-07-06T07:33:32;102459.88;;;24.09;36.19
70976;BME280;58635;51.198;6.010;2022-07-06T07:35:57;102452.69;;;24.04;36.41
70976;BME280;58635;51.198;6.010;2022-07-06T07:38:22;102451.88;;;24.04;36.47
70976;BME280;58635;51.198;6.010;2022-07-06T07:40:48;102450.94;;;23.93;36.43
70976;BME280;58635;51.198;6.010;2022-07-06T07:43:13;102453.34;;;23.95;36.86
70976;BME280;58635;51.198;6.010;2022-07-06T07:45:39;102459.22;;;24.02;36.58
70976;BME280;58635;51.198;6.010;2022-07-06T07:48:05;102457.06;;;23.99;36.53
70976;BME280;58635;51.198;6.010;2022-07-06T07:50:30;102452.38;;;23.84;36.84
70976;BME280;58635;51.198;6.010;2022-07-06T07:52:56;102456.16;;;23.71;37.13
70976;BME280;58635;51.198;6.010;2022-07-06T07:55:21;102457.03;;;23.60;37.57
70976;BME280;58635;51.198;6.010;2022-07-06T07:57:46;102459.78;;;23.53;37.45
70976;BME280;58635;51.198;6.010;2022-07-06T08:00:13;102449.53;;;23.40;37.75
70976;BME280;58635;51.198;6.010;2022-07-06T08:02:38;102447.25;;;23.32;38.03
70976;BME280;58635;51.198;6.010;2022-07-06T08:05:04;102447.19;;;23.27;37.94
70976;BME280;58635;51.198;6.010;2022-07-06T08:07:29;102445.28;;;23.22;38.01
70976;BME280;58635;51.198;6.010;2022-07-06T08:09:55;102441.78;;;23.33;37.91
70976;BME280;58635;51.198;6.010;2022-07-06T08:12:20;102443.81;;;23.60;37.85
70976;BME280;58635;51.198;6.010;2022-07-06T08:14:45;102445.66;;;23.93;36.82
70976;BME280;58635;51.198;6.010;2022-07-06T08:17:11;102444.47;;;24.23;36.82
70976;BME280;58635;51.198;6.010;2022-07-06T08:19:36;102439.50;;;24.48;35.51
70976;BME280;58635;51.198;6.010;2022-07-06T08:22:02;102437.66;;;24.48;35.41
70976;BME280;58635;51.198;6.010;2022-07-06T08:24:33;102429.44;;;24.45;35.85
70976;BME280;58635;51.198;6.010;2022-07-06T08:26:59;102433.25;;;24.54;35.46
70976;BME280;58635;51.198;6.010;2022-07-06T08:29:25;102431.66;;;24.53;34.88
70976;BME280;58635;51.198;6.010;2022-07-06T08:31:50;102436.75;;;24.38;35.29
70976;BME280;58635;51.198;6.010;2022-07-06T08:34:16;102431.88;;;24.30;35.82
70976;BME280;58635;51.198;6.010;2022-07-06T08:36:41;102429.81;;;24.32;35.88
70976;BME280;58635;51.198;6.010;2022-07-06T08:39:07;102424.69;;;24.47;35.44
70976;BME280;58635;51.198;6.010;2022-07-06T08:41:33;102436.03;;;24.64;34.94
70976;BME280;58635;51.198;6.010;2022-07-06T08:43:59;102436.50;;;24.61;35.02
70976;BME280;58635;51.198;6.010;2022-07-06T08:46:28;102434.78;;;24.72;34.86
70976;BME280;58635;51.198;6.010;2022-07-06T08:48:55;102440.97;;;25.04;34.58
70976;BME280;58635;51.198;6.010;2022-07-06T08:51:22;102434.38;;;25.34;33.85
70976;BME280;58635;51.198;6.010;2022-07-06T08:53:49;102435.91;;;25.67;33.38
70976;BME280;58635;51.198;6.010;2022-07-06T08:56:15;102438.75;;;25.87;32.98
70976;BME280;58635;51.198;6.010;2022-07-06T08:58:41;102437.72;;;25.93;32.66
70976;BME280;58635;51.198;6.010;2022-07-06T09:01:09;102445.69;;;25.93;32.79
70976;BME280;58635;51.198;6.010;2022-07-06T09:03:36;102431.56;;;25.83;32.80
70976;BME280;58635;51.198;6.010;2022-07-06T09:06:02;102443.16;;;25.72;32.88
70976;BME280;58635;51.198;6.010;2022-07-06T09:08:31;102429.19;;;25.49;33.27
70976;BME280;58635;51.198;6.010;2022-07-06T09:10:56;102429.59;;;25.36;33.17
70976;BME280;58635;51.198;6.010;2022-07-06T09:13:22;102426.31;;;25.24;33.52
70976;BME280;58635;51.198;6.010;2022-07-06T09:15:47;102430.22;;;25.16;33.67
70976;BME280;58635;51.198;6.010;2022-07-06T09:18:13;102427.53;;;25.11;33.61
70976;BME280;58635;51.198;6.010;2022-07-06T09:20:40;102428.03;;;25.08;33.43
70976;BME280;58635;51.198;6.010;2022-07-06T09:23:06;102426.69;;;25.05;33.30
70976;BME280;58635;51.198;6.010;2022-07-06T09:25:32;102423.06;;;24.90;33.64
70976;BME280;58635;51.198;6.010;2022-07-06T09:27:59;102421.47;;;24.89;34.16
70976;BME280;58635;51.198;6.010;2022-07-06T09:30:26;102420.78;;;24.98;33.89
70976;BME280;58635;51.198;6.010;2022-07-06T09:32:54;102422.78;;;25.13;33.60
70976;BME280;58635;51.198;6.010;2022-07-06T09:38:08;102430.06;;;25.28;32.47
70976;BME280;58635;51.198;6.010;2022-07-06T09:40:36;102427.66;;;25.26;32.36
70976;BME280;58635;51.198;6.010;2022-07-06T09:43:12;102423.50;;;25.35;31.60
70976;BME280;58635;51.198;6.010;2022-07-06T09:45:39;102428.56;;;25.37;31.33
70976;BME280;58635;51.198;6.010;2022-07-06T09:48:09;102429.91;;;25.45;31.03
70976;BME280;58635;51.198;6.010;2022-07-06T09:50:45;102423.16;;;25.59;30.81
70976;BME280;58635;51.198;6.010;2022-07-06T09:53:12;102425.16;;;25.79;30.92
70976;BME280;58635;51.198;6.010;2022-07-06T09:55:38;102425.75;;;25.91;30.45
70976;BME280;58635;51.198;6.010;2022-07-06T09:58:04;102425.09;;;26.11;29.84
70976;BME280;58635;51.198;6.010;2022-07-06T10:00:30;102430.28;;;26.38;29.84
70976;BME280;58635;51.198;6.010;2022-07-06T10:02:55;102427.69;;;26.58;29.76
70976;BME280;58635;51.198;6.010;2022-07-06T10:05:22;102435.69;;;26.73;29.76
70976;BME280;58635;51.198;6.010;2022-07-06T10:07:58;102426.91;;;26.52;29.34
70976;BME280;58635;51.198;6.010;2022-07-06T10:10:28;102430.19;;;26.22;29.62
70976;BME280;58635;51.198;6.010;2022-07-06T10:12:58;102431.97;;;26.12;29.84
70976;BME280;58635;51.198;6.010;2022-07-06T10:15:28;102429.13;;;26.18;29.05
70976;BME280;58635;51.198;6.010;2022-07-06T10:17:54;102423.81;;;26.23;28.36
70976;BME280;58635;51.198;6.010;2022-07-06T10:20:21;102422.53;;;26.31;28.64
70976;BME280;58635;51.198;6.010;2022-07-06T10:22:47;102421.03;;;26.50;28.71
70976;BME280;58635;51.198;6.010;2022-07-06T10:25:16;102424.56;;;26.76;28.61
70976;BME280;58635;51.198;6.010;2022-07-06T10:27:42;102425.38;;;26.97;28.31
70976;BME280;58635;51.198;6.010;2022-07-06T10:30:09;102419.84;;;27.09;27.87
70976;BME280;58635;51.198;6.010;2022-07-06T10:32:35;102423.78;;;26.96;28.27
70976;BME280;58635;51.198;6.010;2022-07-06T10:35:01;102427.72;;;26.73;29.01
70976;BME280;58635;51.198;6.010;2022-07-06T10:37:27;102429.56;;;26.63;28.96
70976;BME280;58635;51.198;6.010;2022-07-06T10:39:53;102427.66;;;26.48;29.62
70976;BME280;58635;51.198;6.010;2022-07-06T10:42:46;102424.25;;;26.52;29.67
70976;BME280;58635;51.198;6.010;2022-07-06T10:45:18;102426.94;;;26.68;29.22
70976;BME280;58635;51.198;6.010;2022-07-06T10:47:45;102426.41;;;26.86;28.76
70976;BME280;58635;51.198;6.010;2022-07-06T10:50:11;102426.19;;;26.98;28.85
70976;BME280;58635;51.198;6.010;2022-07-06T10:52:51;102426.75;;;27.10;28.61
70976;BME280;58635;51.198;6.010;2022-07-06T10:55:34;102418.53;;;27.22;28.10
70976;BME280;58635;51.198;6.010;2022-07-06T10:58:00;102419.06;;;27.24;28.45
70976;BME280;58635;51.198;6.010;2022-07-06T11:00:25;102426.50;;;27.47;28.19
70976;BME280;58635;51.198;6.010;2022-07-06T11:02:51;102420.38;;;27.62;28.25
70976;BME280;58635;51.198;6.010;2022-07-06T11:05:42;102432.31;;;27.80;28.07
70976;BME280;58635;51.198;6.010;2022-07-06T11:08:10;102423.22;;;28.01;27.95
70976;BME280;58635;51.198;6.010;2022-07-06T11:10:49;102423.66;;;28.34;27.51
70976;BME280;58635;51.198;6.010;2022-07-06T11:13:27;102417.78;;;28.42;27.09
70976;BME280;58635;51.198;6.010;2022-07-06T11:16:01;102416.75;;;28.22;27.37
70976;BME280;58635;51.198;6.010;2022-07-06T11:18:40;102416.53;;;28.14;27.87
70976;BME280;58635;51.198;6.010;2022-07-06T11:21:18;102418.13;;;28.15;27.66
70976;BME280;58635;51.198;6.010;2022-07-06T11:23:49;102416.81;;;28.12;27.77
70976;BME280;58635;51.198;6.010;2022-07-06T11:26:16;102415.72;;;28.13;27.75
70976;BME280;58635;51.198;6.010;2022-07-06T11:28:45;102421.56;;;28.20;27.24
70976;BME280;58635;51.198;6.010;2022-07-06T11:31:11;102422.34;;;28.26;26.91
70976;BME280;58635;51.198;6.010;2022-07-06T11:33:36;102418.34;;;28.23;27.42
70976;BME280;58635;51.198;6.010;2022-07-06T11:36:18;102415.69;;;28.23;27.23
70976;BME280;58635;51.198;6.010;2022-07-06T11:38:46;102413.31;;;28.27;27.28
70976;BME280;58635;51.198;6.010;2022-07-06T11:41:12;102413.03;;;28.29;27.24
70976;BME280;58635;51.198;6.010;2022-07-06T11:43:44;102414.63;;;28.30;27.38
70976;BME280;58635;51.198;6.010;2022-07-06T11:46:21;102412.22;;;28.33;27.47
70976;BME280;58635;51.198;6.010;2022-07-06T11:48:52;102404.72;;;28.45;27.20
70976;BME280;58635;51.198;6.010;2022-07-06T11:51:18;102405.41;;;28.61;27.12
70976;BME280;58635;51.198;6.010;2022-07-06T11:53:47;102409.09;;;28.70;26.92
70976;BME280;58635;51.198;6.010;2022-07-06T11:56:16;102399.16;;;28.81;26.75
70976;BME280;58635;51.198;6.010;2022-07-06T11:58:48;102397.81;;;28.83;26.66
70976;BME280;58635;51.198;6.010;2022-07-06T12:01:14;102398.63;;;28.89;26.47
70976;BME280;58635;51.198;6.010;2022-07-06T12:03:41;102397.53;;;28.90;26.70
70976;BME280;58635;51.198;6.010;2022-07-06T12:06:14;102400.25;;;28.80;26.47
70976;BME280;58635;51.198;6.010;2022-07-06T12:08:44;102398.94;;;28.77;26.45
70976;BME280;58635;51.198;6.010;2022-07-06T12:11:10;102401.28;;;28.84;26.53
70976;BME280;58635;51.198;6.010;2022-07-06T12:13:41;102393.53;;;28.88;26.69
70976;BME280;58635;51.198;6.010;2022-07-06T12:16:11;102387.69;;;28.91;26.73
70976;BME280;58635;51.198;6.010;2022-07-06T12:18:38;102392.78;;;28.77;26.56
70976;BME280;58635;51.198;6.010;2022-07-06T12:21:07;102388.09;;;28.64;27.12
70976;BME280;58635;51.198;6.010;2022-07-06T12:23:52;102382.31;;;28.51;27.17
70976;BME280;58635;51.198;6.010;2022-07-06T12:26:20;102378.91;;;28.41;27.47
70976;BME280;58635;51.198;6.010;2022-07-06T12:28:53;102370.97;;;28.36;27.32
70976;BME280;58635;51.198;6.010;2022-07-06T12:31:35;102369.59;;;28.43;27.43
70976;BME280;58635;51.198;6.010;2022-07-06T12:34:00;102366.00;;;28.63;27.34
70976;BME280;58635;51.198;6.010;2022-07-06T12:36:26;102360.75;;;28.87;26.98
70976;BME280;58635;51.198;6.010;2022-07-06T12:38:51;102368.84;;;29.11;26.73
70976;BME280;58635;51.198;6.010;2022-07-06T12:41:32;102364.31;;;29.40;26.39
70976;BME280;58635;51.198;6.010;2022-07-06T12:44:08;102362.78;;;29.63;25.81
70976;BME280;58635;51.198;6.010;2022-07-06T12:46:41;102356.69;;;29.82;25.51
70976;BME280;58635;51.198;6.010;2022-07-06T12:49:21;102371.94;;;30.00;25.31
70976;BME280;58635;51.198;6.010;2022-07-06T12:54:16;102362.19;;;30.33;25.13
70976;BME280;58635;51.198;6.010;2022-07-06T12:59:39;102359.03;;;30.69;24.78